sensor_id;sensor_type;location;lat;lon;timestamp;pressure;altitude;pressure_sealevel;temperature;humidity
12963;BME280;6546;49.882;8.666;2023-04-20T00:01:04;100187.63;;;8.27;49.45
12963;BME280;6546;49.882;8.666;2023-04-20T00:03:31;100188.06;;;8.32;50.03
12963;BME280;6546;49.882;8.666;2023-04-20T00:06:00;100178.03;;;8.29;50.38
12963;BME280;6546;49.882;8.666;2023-04-20T00:08:27;100175.59;;;8.28;50.73
12963;BME280;6546;49.882;8.666;2023-04-20T00:10:54;100168.91;;;8.25;50.78
12963;BME280;6546;49.882;8.666;2023-04-20T00:13:20;100160.81;;;8.20;50.67
12963;BME280;6546;49.882;8.666;2023-04-20T00:15:47;100164.72;;;8.24;50.70
12963;BME280;6546;49.882;8.666;2023-04-20T00:18:13;100145.72;;;8.25;49.08
12963;BME280;6546;49.882;8.666;2023-04-20T00:20:40;100151.13;;;8.32;48.50
12963;BME280;6546;49.882;8.666;2023-04-20T00:23:08;100138.91;;;8.24;48.85
12963;BME280;6546;49.882;8.666;2023-04-20T00:25:35;100145.84;;;8.33;47.90
12963;BME280;6546;49.882;8.666;2023-04-20T00:28:01;100138.88;;;8.34;46.88
12963;BME280;6546;49.882;8.666;2023-04-20T00:30:28;100134.44;;;8.26;46.86
12963;BME280;6546;49.882;8.666;2023-04-20T00:32:54;100128.31;;;8.27;47.20
12963;BME280;6546;49.882;8.666;2023-04-20T00:35:21;100129.28;;;8.26;47.80
12963;BME280;6546;49.882;8.666;2023-04-20T00:37:48;100129.97;;;8.28;47.51
12963;BME280;6546;49.882;8.666;2023-04-20T00:40:16;100125.06;;;8.25;47.49
12963;BME280;6546;49.882;8.666;2023-04-20T00:42:42;100120.56;;;8.27;47.62
12963;BME280;6546;49.882;8.666;2023-04-20T00:45:09;100120.19;;;8.32;46.90
12963;BME280;6546;49.882;8.666;2023-04-20T00:47:36;100115.84;;;8.32;47.01
12963;BME280;6546;49.882;8.666;2023-04-20T00:50:03;100107.84;;;8.26;46.39
12963;BME280;6546;49.882;8.666;2023-04-20T00:52:30;100103.97;;;8.12;46.91
12963;BME280;6546;49.882;8.666;2023-04-20T00:54:57;100102.56;;;8.18;46.97
12963;BME280;6546;49.882;8.666;2023-04-20T00:57:25;100104.22;;;8.19;47.39
12963;BME280;6546;49.882;8.666;2023-04-20T00:59:53;100104.72;;;8.22;47.48
12963;BME280;6546;49.882;8.666;2023-04-20T01:02:19;100086.31;;;8.17;47.45
12963;BME280;6546;49.882;8.666;2023-04-20T01:04:46;100084.41;;;8.19;47.05
12963;BME280;6546;49.882;8.666;2023-04-20T01:07:13;100080.28;;;8.26;47.27
12963;BME280;6546;49.882;8.666;2023-04-20T01:09:40;100083.41;;;8.30;47.40
12963;BME280;6546;49.882;8.666;2023-04-20T01:12:08;100077.91;;;8.15;47.27
12963;BME280;6546;49.882;8.666;2023-04-20T01:14:36;100079.44;;;8.08;47.49
12963;BME280;6546;49.882;8.666;2023-04-20T01:17:03;100080.53;;;7.88;47.86
12963;BME280;6546;49.882;8.666;2023-04-20T01:19:30;100075.44;;;7.96;47.82
12963;BME280;6546;49.882;8.666;2023-04-20T01:21:57;100072.97;;;8.04;48.79
12963;BME280;6546;49.882;8.666;2023-04-20T01:24:25;100062.38;;;8.07;47.93
12963;BME280;6546;49.882;8.666;2023-04-20T01:26:52;100067.88;;;8.12;47.83
12963;BME280;6546;49.882;8.666;2023-04-20T01:29:18;100062.94;;;8.01;47.89
12963;BME280;6546;49.882;8.666;2023-04-20T01:31:45;100056.97;;;8.01;48.08
12963;BME280;6546;49.882;8.666;2023-04-20T01:34:12;100066.84;;;8.05;48.01
12963;BME280;6546;49.882;8.666;2023-04-20T01:36:39;100061.47;;;8.16;47.68
12963;BME280;6546;49.882;8.666;2023-04-20T01:39:06;100046.28;;;7.96;48.13
12963;BME280;6546;49.882;8.666;2023-04-20T01:41:34;100049.00;;;7.94;48.17
12963;BME280;6546;49.882;8.666;2023-04-20T01:44:00;100038.41;;;7.97;48.37
12963;BME280;6546;49.882;8.666;2023-04-20T01:46:27;100051.31;;;7.97;48.49
12963;BME280;6546;49.882;8.666;2023-04-20T01:48:53;100054.63;;;8.07;48.33
12963;BME280;6546;49.882;8.666;2023-04-20T01:51:20;100042.38;;;8.09;48.03
12963;BME280;6546;49.882;8.666;2023-04-20T01:53:47;100047.75;;;7.98;48.26
12963;BME280;6546;49.882;8.666;2023-04-20T01:56:13;100046.84;;;7.89;48.64
12963;BME280;6546;49.882;8.666;2023-04-20T01:58:41;100040.53;;;7.84;48.64
12963;BME280;6546;49.882;8.666;2023-04-20T02:01:08;100042.88;;;7.95;48.55
12963;BME280;6546;49.882;8.666;2023-04-20T02:03:35;100043.75;;;7.86;48.59
12963;BME280;6546;49.882;8.666;2023-04-20T02:06:01;100039.06;;;7.81;48.83
12963;BME280;6546;49.882;8.666;2023-04-20T02:08:28;100041.41;;;7.75;49.22
12963;BME280;6546;49.882;8.666;2023-04-20T02:10:54;100040.47;;;7.66;49.39
12963;BME280;6546;49.882;8.666;2023-04-20T02:13:21;100044.38;;;7.53;49.95
12963;BME280;6546;49.882;8.666;2023-04-20T02:15:49;100037.00;;;7.58;49.84
12963;BME280;6546;49.882;8.666;2023-04-20T02:18:15;100034.31;;;7.50;50.16
12963;BME280;6546;49.882;8.666;2023-04-20T02:20:42;100034.47;;;7.48;50.13
12963;BME280;6546;49.882;8.666;2023-04-20T02:23:09;100037.38;;;7.35;50.56
12963;BME280;6546;49.882;8.666;2023-04-20T02:25:36;100033.25;;;7.15;51.16
12963;BME280;6546;49.882;8.666;2023-04-20T02:28:03;100030.19;;;7.02;52.06
12963;BME280;6546;49.882;8.666;2023-04-20T02:30:29;100022.59;;;7.10;52.16
12963;BME280;6546;49.882;8.666;2023-04-20T02:32:57;100016.09;;;7.06;52.17
12963;BME280;6546;49.882;8.666;2023-04-20T02:35:24;100022.31;;;7.13;51.97
12963;BME280;6546;49.882;8.666;2023-04-20T02:37:51;100024.72;;;7.15;52.18
12963;BME280;6546;49.882;8.666;2023-04-20T02:40:18;100018.72;;;7.24;51.84
12963;BME280;6546;49.882;8.666;2023-04-20T02:42:44;100020.09;;;7.18;51.84
12963;BME280;6546;49.882;8.666;2023-04-20T02:45:11;100022.00;;;7.16;52.37
12963;BME280;6546;49.882;8.666;2023-04-20T02:47:37;100012.38;;;7.18;52.78
12963;BME280;6546;49.882;8.666;2023-04-20T02:50:07;100022.09;;;7.24;52.58
12963;BME280;6546;49.882;8.666;2023-04-20T02:52:33;100019.25;;;7.27;52.65
12963;BME280;6546;49.882;8.666;2023-04-20T02:55:00;100013.81;;;7.30;52.86
12963;BME280;6546;49.882;8.666;2023-04-20T02:57:27;100014.63;;;7.31;52.64
12963;BME280;6546;49.882;8.666;2023-04-20T02:59:54;100006.09;;;7.30;52.56
12963;BME280;6546;49.882;8.666;2023-04-20T03:02:20;100010.69;;;7.36;52.45
12963;BME280;6546;49.882;8.666;2023-04-20T03:04:47;100001.34;;;7.35;52.48
12963;BME280;6546;49.882;8.666;2023-04-20T03:07:15;100008.25;;;7.35;52.50
12963;BME280;6546;49.882;8.666;2023-04-20T03:09:42;100006.03;;;7.40;52.04
12963;BME280;6546;49.882;8.666;2023-04-20T03:12:09;100002.16;;;7.36;52.29
12963;BME280;6546;49.882;8.666;2023-04-20T03:14:36;99994.25;;;7.37;52.08
12963;BME280;6546;49.882;8.666;2023-04-20T03:17:02;100001.88;;;7.39;51.73
12963;BME280;6546;49.882;8.666;2023-04-20T03:19:29;99999.91;;;7.23;52.21
12963;BME280;6546;49.882;8.666;2023-04-20T03:21:55;100002.47;;;7.23;52.75
12963;BME280;6546;49.882;8.666;2023-04-20T03:24:23;100000.06;;;7.12;52.68
12963;BME280;6546;49.882;8.666;2023-04-20T03:26:50;100001.19;;;7.10;52.92
12963;BME280;6546;49.882;8.666;2023-04-20T03:29:16;99989.94;;;7.11;53.17
12963;BME280;6546;49.882;8.666;2023-04-20T03:31:43;99995.47;;;7.16;53.25
12963;BME280;6546;49.882;8.666;2023-04-20T03:34:10;99989.25;;;7.09;53.27
12963;BME280;6546;49.882;8.666;2023-04-20T03:36:37;99986.63;;;6.91;53.34
12963;BME280;6546;49.882;8.666;2023-04-20T03:39:04;99983.78;;;6.84;53.62
12963;BME280;6546;49.882;8.666;2023-04-20T03:41:32;99984.56;;;6.85;54.13
12963;BME280;6546;49.882;8.666;2023-04-20T03:43:59;99985.41;;;6.76;54.36
12963;BME280;6546;49.882;8.666;2023-04-20T03:46:25;99980.19;;;6.58;54.93
12963;BME280;6546;49.882;8.666;2023-04-20T03:48:52;99985.88;;;6.62;54.94
12963;BME280;6546;49.882;8.666;2023-04-20T03:51:19;99982.34;;;6.63;55.39
12963;BME280;6546;49.882;8.666;2023-04-20T03:53:45;99984.25;;;6.61;55.35
12963;BME280;6546;49.882;8.666;2023-04-20T03:56:12;99977.34;;;6.61;55.13
12963;BME280;6546;49.882;8.666;2023-04-20T03:58:40;99978.28;;;6.60;55.31
12963;BME280;6546;49.882;8.666;2023-04-20T04:01:06;99971.25;;;6.53;55.80
12963;BME280;6546;49.882;8.666;2023-04-20T04:03:34;99968.84;;;6.51;56.23
12963;BME280;6546;49.882;8.666;2023-04-20T04:06:02;99969.38;;;6.55;55.96
12963;BME280;6546;49.882;8.666;2023-04-20T04:08:29;99957.88;;;6.49;56.60
12963;BME280;6546;49.882;8.666;2023-04-20T04:10:56;99971.00;;;6.56;56.28
12963;BME280;6546;49.882;8.666;2023-04-20T04:13:23;99963.53;;;6.53;56.92
12963;BME280;6546;49.882;8.666;2023-04-20T04:15:51;99969.66;;;6.42;57.34
12963;BME280;6546;49.882;8.666;2023-04-20T04:18:19;99969.94;;;6.49;57.18
12963;BME280;6546;49.882;8.666;2023-04-20T04:20:46;99965.44;;;6.51;57.28
12963;BME280;6546;49.882;8.666;2023-04-20T04:23:12;99968.28;;;6.57;57.34
12963;BME280;6546;49.882;8.666;2023-04-20T04:25:39;99955.81;;;6.53;57.36
12963;BME280;6546;49.882;8.666;2023-04-20T04:28:06;99966.38;;;6.50;58.16
12963;BME280;6546;49.882;8.666;2023-04-20T04:30:33;99976.16;;;6.46;58.58
12963;BME280;6546;49.882;8.666;2023-04-20T04:33:01;99979.13;;;6.42;59.04
12963;BME280;6546;49.882;8.666;2023-04-20T04:35:29;99979.69;;;6.45;58.96
12963;BME280;6546;49.882;8.666;2023-04-20T04:37:55;99971.53;;;6.50;59.48
12963;BME280;6546;49.882;8.666;2023-04-20T04:40:22;99969.13;;;6.48;59.64
12963;BME280;6546;49.882;8.666;2023-04-20T04:42:48;99967.75;;;6.54;59.78
12963;BME280;6546;49.882;8.666;2023-04-20T04:45:15;99958.00;;;6.57;59.81
12963;BME280;6546;49.882;8.666;2023-04-20T04:47:42;99976.16;;;6.56;60.11
12963;BME280;6546;49.882;8.666;2023-04-20T04:50:11;99983.16;;;6.63;60.18
12963;BME280;6546;49.882;8.666;2023-04-20T04:52:37;99980.00;;;6.79;59.84
12963;BME280;6546;49.882;8.666;2023-04-20T04:55:05;99975.38;;;6.82;59.79
12963;BME280;6546;49.882;8.666;2023-04-20T04:57:33;99975.53;;;6.81;59.72
12963;BME280;6546;49.882;8.666;2023-04-20T05:00:04;99978.25;;;6.79;59.89
12963;BME280;6546;49.882;8.666;2023-04-20T05:02:38;99979.06;;;6.80;60.11
12963;BME280;6546;49.882;8.666;2023-04-20T05:05:06;99975.53;;;6.81;60.18
12963;BME280;6546;49.882;8.666;2023-04-20T05:07:35;99970.94;;;6.84;60.15
12963;BME280;6546;49.882;8.666;2023-04-20T05:10:02;99966.88;;;6.72;60.60
12963;BME280;6546;49.882;8.666;2023-04-20T05:12:30;99969.19;;;6.66;60.79
12963;BME280;6546;49.882;8.666;2023-04-20T05:14:56;99976.09;;;6.75;60.89
12963;BME280;6546;49.882;8.666;2023-04-20T05:17:23;99973.94;;;6.70;61.13
12963;BME280;6546;49.882;8.666;2023-04-20T05:19:52;99972.72;;;6.74;61.29
12963;BME280;6546;49.882;8.666;2023-04-20T05:22:18;99971.50;;;6.78;61.44
12963;BME280;6546;49.882;8.666;2023-04-20T05:24:46;99971.50;;;6.78;61.45
12963;BME280;6546;49.882;8.666;2023-04-20T05:27:13;99981.75;;;6.88;61.44
12963;BME280;6546;49.882;8.666;2023-04-20T05:29:39;99978.13;;;6.81;61.63
12963;BME280;6546;49.882;8.666;2023-04-20T05:32:06;99979.28;;;6.96;61.59
12963;BME280;6546;49.882;8.666;2023-04-20T05:34:33;99974.41;;;6.93;61.42
12963;BME280;6546;49.882;8.666;2023-04-20T05:37:00;99980.13;;;6.87;61.93
12963;BME280;6546;49.882;8.666;2023-04-20T05:39:29;99969.81;;;6.87;61.85
12963;BME280;6546;49.882;8.666;2023-04-20T05:41:57;99977.91;;;6.92;62.23
12963;BME280;6546;49.882;8.666;2023-04-20T05:44:23;99978.69;;;7.02;62.10
12963;BME280;6546;49.882;8.666;2023-04-20T05:46:50;99977.34;;;6.98;62.16
12963;BME280;6546;49.882;8.666;2023-04-20T05:49:16;99979.53;;;7.03;62.44
12963;BME280;6546;49.882;8.666;2023-04-20T05:51:43;99980.34;;;7.03;63.23
12963;BME280;6546;49.882;8.666;2023-04-20T05:54:10;99976.72;;;7.23;64.02
12963;BME280;6546;49.882;8.666;2023-04-20T05:56:37;99983.25;;;7.18;62.40
12963;BME280;6546;49.882;8.666;2023-04-20T05:59:05;99983.81;;;7.12;62.68
12963;BME280;6546;49.882;8.666;2023-04-20T06:01:32;99985.69;;;7.19;62.54
12963;BME280;6546;49.882;8.666;2023-04-20T06:03:59;99983.06;;;7.29;62.55
12963;BME280;6546;49.882;8.666;2023-04-20T06:06:25;99982.72;;;7.14;63.30
12963;BME280;6546;49.882;8.666;2023-04-20T06:08:52;99981.78;;;7.15;63.41
12963;BME280;6546;49.882;8.666;2023-04-20T06:11:19;99967.41;;;7.13;63.57
12963;BME280;6546;49.882;8.666;2023-04-20T06:13:45;99973.38;;;7.13;63.79
12963;BME280;6546;49.882;8.666;2023-04-20T06:16:13;99980.81;;;7.16;63.81
12963;BME280;6546;49.882;8.666;2023-04-20T06:18:40;99975.78;;;6.88;65.06
12963;BME280;6546;49.882;8.666;2023-04-20T06:21:08;99979.34;;;6.77;65.66
12963;BME280;6546;49.882;8.666;2023-04-20T06:23:34;99981.19;;;6.94;65.25
12963;BME280;6546;49.882;8.666;2023-04-20T06:26:01;99977.88;;;7.02;65.16
12963;BME280;6546;49.882;8.666;2023-04-20T06:28:28;99967.09;;;6.88;65.44
12963;BME280;6546;49.882;8.666;2023-04-20T06:30:55;99968.03;;;6.97;65.40
12963;BME280;6546;49.882;8.666;2023-04-20T06:33:23;99965.19;;;7.00;65.49
12963;BME280;6546;49.882;8.666;2023-04-20T06:35:49;99970.31;;;7.00;65.85
12963;BME280;6546;49.882;8.666;2023-04-20T06:38:18;99955.25;;;7.05;65.62
12963;BME280;6546;49.882;8.666;2023-04-20T06:40:45;99961.81;;;7.17;65.51
12963;BME280;6546;49.882;8.666;2023-04-20T06:43:12;99958.50;;;7.07;65.89
12963;BME280;6546;49.882;8.666;2023-04-20T06:45:38;99961.91;;;6.98;66.10
12963;BME280;6546;49.882;8.666;2023-04-20T06:48:06;99964.03;;;7.12;65.48
12963;BME280;6546;49.882;8.666;2023-04-20T06:50:34;99969.91;;;6.95;66.12
12963;BME280;6546;49.882;8.666;2023-04-20T06:53:01;99970.69;;;7.05;66.12
12963;BME280;6546;49.882;8.666;2023-04-20T06:55:28;99966.47;;;7.14;65.84
12963;BME280;6546;49.882;8.666;2023-04-20T06:57:54;99974.28;;;7.22;65.70
12963;BME280;6546;49.882;8.666;2023-04-20T07:00:21;99970.19;;;7.29;65.55
12963;BME280;6546;49.882;8.666;2023-04-20T07:02:49;99972.31;;;7.33;65.18
12963;BME280;6546;49.882;8.666;2023-04-20T07:05:16;99971.28;;;7.26;65.41
12963;BME280;6546;49.882;8.666;2023-04-20T07:07:45;99966.16;;;7.26;65.45
12963;BME280;6546;49.882;8.666;2023-04-20T07:10:15;99966.66;;;7.30;65.18
12963;BME280;6546;49.882;8.666;2023-04-20T07:12:42;99960.72;;;7.29;64.94
12963;BME280;6546;49.882;8.666;2023-04-20T07:15:09;99966.91;;;7.36;64.86
12963;BME280;6546;49.882;8.666;2023-04-20T07:17:36;99964.13;;;7.48;64.67
12963;BME280;6546;49.882;8.666;2023-04-20T07:20:03;99963.53;;;7.54;64.43
12963;BME280;6546;49.882;8.666;2023-04-20T07:22:38;99962.06;;;7.51;64.39
12963;BME280;6546;49.882;8.666;2023-04-20T07:25:08;99966.56;;;7.67;63.95
12963;BME280;6546;49.882;8.666;2023-04-20T07:27:36;99965.97;;;7.73;63.25
12963;BME280;6546;49.882;8.666;2023-04-20T07:30:03;99962.09;;;7.69;63.11
12963;BME280;6546;49.882;8.666;2023-04-20T07:32:31;99960.75;;;7.82;62.94
12963;BME280;6546;49.882;8.666;2023-04-20T07:34:57;99951.06;;;7.94;62.06
12963;BME280;6546;49.882;8.666;2023-04-20T07:37:24;99962.63;;;8.08;61.89
12963;BME280;6546;49.882;8.666;2023-04-20T07:39:51;99957.16;;;8.28;61.48
12963;BME280;6546;49.882;8.666;2023-04-20T07:42:19;99964.38;;;8.42;60.69
12963;BME280;6546;49.882;8.666;2023-04-20T07:44:46;99960.97;;;8.42;60.80
12963;BME280;6546;49.882;8.666;2023-04-20T07:47:13;99965.09;;;8.53;60.16
12963;BME280;6546;49.882;8.666;2023-04-20T07:49:40;99965.28;;;8.59;59.90
12963;BME280;6546;49.882;8.666;2023-04-20T07:52:06;99962.19;;;8.56;59.17
12963;BME280;6546;49.882;8.666;2023-04-20T07:54:33;99959.91;;;8.78;59.50
12963;BME280;6546;49.882;8.666;2023-04-20T07:57:00;99966.97;;;9.02;58.51
12963;BME280;6546;49.882;8.666;2023-04-20T07:59:29;99965.41;;;8.83;57.57
12963;BME280;6546;49.882;8.666;2023-04-20T08:01:57;99962.47;;;9.04;57.13
12963;BME280;6546;49.882;8.666;2023-04-20T08:04:25;99953.16;;;8.85;56.94
12963;BME280;6546;49.882;8.666;2023-04-20T08:06:52;99958.25;;;9.03;56.56
12963;BME280;6546;49.882;8.666;2023-04-20T08:09:18;99945.03;;;9.06;56.60
12963;BME280;6546;49.882;8.666;2023-04-20T08:11:45;99944.34;;;8.96;56.70
12963;BME280;6546;49.882;8.666;2023-04-20T08:14:14;99948.53;;;8.97;56.65
12963;BME280;6546;49.882;8.666;2023-04-20T08:16:42;99944.84;;;9.00;55.89
12963;BME280;6546;49.882;8.666;2023-04-20T08:19:09;99937.31;;;8.80;56.67
12963;BME280;6546;49.882;8.666;2023-04-20T08:21:35;99934.88;;;9.05;57.16
12963;BME280;6546;49.882;8.666;2023-04-20T08:24:02;99932.09;;;8.98;56.29
12963;BME280;6546;49.882;8.666;2023-04-20T08:26:30;99939.22;;;9.04;55.93
12963;BME280;6546;49.882;8.666;2023-04-20T08:28:58;99944.06;;;9.07;56.13
12963;BME280;6546;49.882;8.666;2023-04-20T08:31:25;99942.22;;;9.33;55.74
12963;BME280;6546;49.882;8.666;2023-04-20T08:33:53;99936.28;;;9.49;54.75
12963;BME280;6546;49.882;8.666;2023-04-20T08:36:20;99931.63;;;9.53;55.12
12963;BME280;6546;49.882;8.666;2023-04-20T08:38:56;99933.53;;;9.50;55.20
12963;BME280;6546;49.882;8.666;2023-04-20T08:41:24;99927.72;;;9.48;54.94
12963;BME280;6546;49.882;8.666;2023-04-20T08:43:53;99916.47;;;9.74;53.99
12963;BME280;6546;49.882;8.666;2023-04-20T08:46:19;99921.47;;;9.75;53.99
12963;BME280;6546;49.882;8.666;2023-04-20T08:48:46;99923.22;;;9.67;54.15
12963;BME280;6546;49.882;8.666;2023-04-20T08:51:15;99920.00;;;9.73;54.10
12963;BME280;6546;49.882;8.666;2023-04-20T08:53:42;99925.19;;;9.89;54.12
12963;BME280;6546;49.882;8.666;2023-04-20T08:56:09;99924.88;;;9.92;51.83
12963;BME280;6546;49.882;8.666;2023-04-20T08:58:35;99921.50;;;9.91;53.30
12963;BME280;6546;49.882;8.666;2023-04-20T09:01:07;99910.66;;;10.04;54.16
12963;BME280;6546;49.882;8.666;2023-04-20T09:03:35;99910.66;;;10.04;52.50
12963;BME280;6546;49.882;8.666;2023-04-20T09:06:02;99908.56;;;10.40;51.29
12963;BME280;6546;49.882;8.666;2023-04-20T09:08:38;99910.25;;;10.64;50.55
12963;BME280;6546;49.882;8.666;2023-04-20T09:11:19;99908.16;;;10.67;51.24
12963;BME280;6546;49.882;8.666;2023-04-20T09:13:57;99912.03;;;10.63;51.07
12963;BME280;6546;49.882;8.666;2023-04-20T09:16:24;99897.16;;;10.65;49.79
12963;BME280;6546;49.882;8.666;2023-04-20T09:18:51;99893.38;;;10.84;48.99
12963;BME280;6546;49.882;8.666;2023-04-20T09:21:18;99896.84;;;11.07;48.31
12963;BME280;6546;49.882;8.666;2023-04-20T09:23:55;99886.16;;;11.02;48.55
12963;BME280;6546;49.882;8.666;2023-04-20T09:26:22;99885.88;;;10.89;48.35
12963;BME280;6546;49.882;8.666;2023-04-20T09:28:48;99884.03;;;10.75;48.67
12963;BME280;6546;49.882;8.666;2023-04-20T09:31:18;99880.78;;;10.73;48.64
12963;BME280;6546;49.882;8.666;2023-04-20T09:33:54;99874.34;;;10.61;49.03
12963;BME280;6546;49.882;8.666;2023-04-20T09:36:21;99878.56;;;10.62;49.55
12963;BME280;6546;49.882;8.666;2023-04-20T09:39:01;99866.53;;;10.77;49.22
12963;BME280;6546;49.882;8.666;2023-04-20T09:41:38;99851.47;;;11.11;50.53
12963;BME280;6546;49.882;8.666;2023-04-20T09:44:05;99857.22;;;11.21;47.80
12963;BME280;6546;49.882;8.666;2023-04-20T09:46:33;99854.94;;;11.26;47.20
12963;BME280;6546;49.882;8.666;2023-04-20T09:49:02;99848.19;;;11.17;46.66
12963;BME280;6546;49.882;8.666;2023-04-20T09:51:31;99859.81;;;11.21;46.73
12963;BME280;6546;49.882;8.666;2023-04-20T09:54:01;99855.09;;;11.25;46.60
12963;BME280;6546;49.882;8.666;2023-04-20T09:56:29;99842.50;;;11.22;46.19
12963;BME280;6546;49.882;8.666;2023-04-20T09:58:56;99854.41;;;11.53;46.42
12963;BME280;6546;49.882;8.666;2023-04-20T10:01:23;99868.31;;;11.60;45.45
12963;BME280;6546;49.882;8.666;2023-04-20T10:03:51;99853.41;;;11.63;45.69
12963;BME280;6546;49.882;8.666;2023-04-20T10:06:20;99855.13;;;11.47;45.42
12963;BME280;6546;49.882;8.666;2023-04-20T10:08:52;99848.69;;;11.43;45.29
12963;BME280;6546;49.882;8.666;2023-04-20T10:11:28;99846.56;;;11.47;44.81
12963;BME280;6546;49.882;8.666;2023-04-20T10:13:55;99856.75;;;11.48;44.33
12963;BME280;6546;49.882;8.666;2023-04-20T10:16:22;99850.41;;;11.74;43.78
12963;BME280;6546;49.882;8.666;2023-04-20T10:19:02;99844.72;;;11.93;43.22
12963;BME280;6546;49.882;8.666;2023-04-20T10:21:44;99835.97;;;11.94;42.65
12963;BME280;6546;49.882;8.666;2023-04-20T10:24:11;99832.22;;;11.96;43.04
12963;BME280;6546;49.882;8.666;2023-04-20T10:26:45;99827.47;;;12.00;43.35
12963;BME280;6546;49.882;8.666;2023-04-20T10:29:22;99835.00;;;12.09;43.35
12963;BME280;6546;49.882;8.666;2023-04-20T10:31:48;99834.09;;;12.02;42.65
12963;BME280;6546;49.882;8.666;2023-04-20T10:34:15;99826.22;;;11.96;43.47
12963;BME280;6546;49.882;8.666;2023-04-20T10:36:42;99815.78;;;12.04;42.68
12963;BME280;6546;49.882;8.666;2023-04-20T10:39:13;99815.78;;;12.04;42.15
12963;BME280;6546;49.882;8.666;2023-04-20T10:41:52;99806.84;;;12.21;41.66
12963;BME280;6546;49.882;8.666;2023-04-20T10:44:19;99814.97;;;12.03;41.59
12963;BME280;6546;49.882;8.666;2023-04-20T10:46:49;99814.34;;;12.01;41.89
12963;BME280;6546;49.882;8.666;2023-04-20T10:49:16;99814.66;;;11.84;42.47
12963;BME280;6546;49.882;8.666;2023-04-20T10:51:47;99804.63;;;11.81;44.34
12963;BME280;6546;49.882;8.666;2023-04-20T10:54:14;99804.25;;;11.69;43.00
12963;BME280;6546;49.882;8.666;2023-04-20T10:56:42;99796.06;;;11.80;43.17
12963;BME280;6546;49.882;8.666;2023-04-20T10:59:12;99804.47;;;11.82;43.67
12963;BME280;6546;49.882;8.666;2023-04-20T11:01:39;99799.44;;;11.81;42.10
12963;BME280;6546;49.882;8.666;2023-04-20T11:04:06;99789.47;;;11.70;42.52
12963;BME280;6546;49.882;8.666;2023-04-20T11:06:34;99791.53;;;11.59;43.20
12963;BME280;6546;49.882;8.666;2023-04-20T11:09:01;99783.50;;;11.69;43.54
12963;BME280;6546;49.882;8.666;2023-04-20T11:11:28;99789.78;;;11.75;43.26
12963;BME280;6546;49.882;8.666;2023-04-20T11:14:05;99775.72;;;11.69;44.53
12963;BME280;6546;49.882;8.666;2023-04-20T11:16:34;99782.97;;;11.74;44.87
12963;BME280;6546;49.882;8.666;2023-04-20T11:19:02;99777.09;;;11.80;43.61
12963;BME280;6546;49.882;8.666;2023-04-20T11:21:35;99766.09;;;11.78;43.01
12963;BME280;6546;49.882;8.666;2023-04-20T11:24:03;99767.06;;;11.77;42.63
12963;BME280;6546;49.882;8.666;2023-04-20T11:26:34;99758.31;;;11.78;41.95
12963;BME280;6546;49.882;8.666;2023-04-20T11:29:01;99774.13;;;11.83;41.26
12963;BME280;6546;49.882;8.666;2023-04-20T11:31:28;99756.16;;;11.96;41.95
12963;BME280;6546;49.882;8.666;2023-04-20T11:33:56;99754.84;;;12.15;42.17
12963;BME280;6546;49.882;8.666;2023-04-20T11:36:24;99758.97;;;12.24;41.94
12963;BME280;6546;49.882;8.666;2023-04-20T11:38:53;99752.41;;;12.13;41.83
12963;BME280;6546;49.882;8.666;2023-04-20T11:41:20;99745.44;;;11.99;41.93
12963;BME280;6546;49.882;8.666;2023-04-20T11:43:47;99746.44;;;11.98;41.67
12963;BME280;6546;49.882;8.666;2023-04-20T11:46:15;99742.75;;;12.07;41.18
12963;BME280;6546;49.882;8.666;2023-04-20T11:48:42;99751.34;;;12.22;38.50
12963;BME280;6546;49.882;8.666;2023-04-20T11:51:10;99736.13;;;12.19;39.01
12963;BME280;6546;49.882;8.666;2023-04-20T11:53:37;99742.97;;;12.41;39.63
12963;BME280;6546;49.882;8.666;2023-04-20T11:56:03;99734.22;;;12.42;39.82
12963;BME280;6546;49.882;8.666;2023-04-20T11:58:30;99738.00;;;12.40;40.37
12963;BME280;6546;49.882;8.666;2023-04-20T12:00:57;99723.16;;;12.34;40.35
12963;BME280;6546;49.882;8.666;2023-04-20T12:03:24;99726.00;;;12.39;39.42
12963;BME280;6546;49.882;8.666;2023-04-20T12:05:51;99736.75;;;12.21;39.31
12963;BME280;6546;49.882;8.666;2023-04-20T12:08:18;99732.28;;;12.00;39.43
12963;BME280;6546;49.882;8.666;2023-04-20T12:10:45;99732.03;;;11.95;39.35
12963;BME280;6546;49.882;8.666;2023-04-20T12:13:12;99733.56;;;12.04;39.39
12963;BME280;6546;49.882;8.666;2023-04-20T12:15:39;99732.09;;;12.17;39.31
12963;BME280;6546;49.882;8.666;2023-04-20T12:18:06;99726.47;;;12.13;38.66
12963;BME280;6546;49.882;8.666;2023-04-20T12:20:32;99731.38;;;12.23;38.83
12963;BME280;6546;49.882;8.666;2023-04-20T12:22:59;99724.03;;;12.26;38.41
12963;BME280;6546;49.882;8.666;2023-04-20T12:25:27;99721.00;;;12.37;38.78
12963;BME280;6546;49.882;8.666;2023-04-20T12:27:55;99705.66;;;12.42;38.56
12963;BME280;6546;49.882;8.666;2023-04-20T12:30:22;99711.28;;;12.46;38.99
12963;BME280;6546;49.882;8.666;2023-04-20T12:32:48;99715.59;;;12.53;39.11
12963;BME280;6546;49.882;8.666;2023-04-20T12:35:15;99712.72;;;12.48;38.30
12963;BME280;6546;49.882;8.666;2023-04-20T12:37:41;99709.44;;;12.40;37.89
12963;BME280;6546;49.882;8.666;2023-04-20T12:40:08;99711.59;;;12.57;37.69
12963;BME280;6546;49.882;8.666;2023-04-20T12:42:37;99699.19;;;12.53;37.75
12963;BME280;6546;49.882;8.666;2023-04-20T12:45:04;99719.25;;;12.44;38.82
12963;BME280;6546;49.882;8.666;2023-04-20T12:47:31;99724.06;;;12.47;39.00
12963;BME280;6546;49.882;8.666;2023-04-20T12:49:57;99720.78;;;12.39;38.80
12963;BME280;6546;49.882;8.666;2023-04-20T12:52:24;99719.81;;;12.25;38.98
12963;BME280;6546;49.882;8.666;2023-04-20T12:54:53;99721.72;;;12.17;39.39
12963;BME280;6546;49.882;8.666;2023-04-20T12:57:19;99734.66;;;12.31;38.92
12963;BME280;6546;49.882;8.666;2023-04-20T12:59:47;99729.75;;;12.36;38.98
12963;BME280;6546;49.882;8.666;2023-04-20T13:02:14;99739.63;;;12.26;39.31
12963;BME280;6546;49.882;8.666;2023-04-20T13:04:40;99723.09;;;11.98;40.18
12963;BME280;6546;49.882;8.666;2023-04-20T13:07:07;99727.97;;;11.93;40.95
12963;BME280;6546;49.882;8.666;2023-04-20T13:09:34;99729.06;;;12.13;44.05
12963;BME280;6546;49.882;8.666;2023-04-20T13:12:00;99729.47;;;12.31;43.68
12963;BME280;6546;49.882;8.666;2023-04-20T13:14:27;99739.16;;;12.37;42.06
12963;BME280;6546;49.882;8.666;2023-04-20T13:16:55;99739.88;;;12.31;41.17